createdAt,value
2023-04-08T00:01:30.925Z,100033.64
2023-04-08T00:03:57.584Z,100031.67
2023-04-08T00:06:24.391Z,100030.98
2023-04-08T00:08:51.158Z,100036.55
2023-04-08T00:11:17.692Z,100031.33
2023-04-08T00:13:44.195Z,100033.84
2023-04-08T00:16:10.692Z,100033.85
2023-04-08T00:18:38.508Z,100034.38
2023-04-08T00:21:05.064Z,100036.18
2023-04-08T00:23:31.559Z,100037.43
2023-04-08T00:25:58.140Z,100040.67
2023-04-08T00:28:24.609Z,100039.95
2023-04-08T00:30:52.653Z,100041.56
2023-04-08T00:33:19.265Z,100040.48
2023-04-08T00:35:46.334Z,100045.88
2023-04-08T00:38:12.953Z,100040.48
2023-04-08T00:40:39.467Z,100047.14
2023-04-08T00:43:06.018Z,100045.52
2023-04-08T00:45:33.750Z,100043.38
2023-04-08T00:48:01.419Z,100043.56
2023-04-08T00:50:27.992Z,100042.46
2023-04-08T00:52:54.504Z,100043.73
2023-04-08T00:55:21.083Z,100048.77
2023-04-08T00:57:48.412Z,100050.36
2023-04-08T01:00:16.529Z,100048.41
2023-04-08T01:02:51.368Z,100052.70
2023-04-08T01:05:23.709Z,100053.41
2023-04-08T01:07:51.016Z,100048.93
2023-04-08T01:10:33.476Z,100046.42
2023-04-08T01:13:08.573Z,100054.46
2023-04-08T01:15:37.755Z,100054.45
2023-04-08T01:18:08.480Z,100057.84
2023-04-08T01:20:35.756Z,100054.42
2023-04-08T01:23:14.550Z,100056.20
2023-04-08T01:25:47.346Z,100057.29
2023-04-08T01:28:18.063Z,100054.23
2023-04-08T01:30:47.860Z,100054.23
2023-04-08T01:33:16.889Z,100054.23
2023-04-08T01:35:45.709Z,100052.09
2023-04-08T01:38:16.660Z,100050.13
2023-04-08T01:40:43.934Z,100049.05
2023-04-08T01:43:13.542Z,100045.27
2023-04-08T01:45:40.117Z,100048.48
2023-04-08T01:48:07.585Z,100048.46
2023-04-08T01:50:35.248Z,100048.80
2023-04-08T01:53:02.312Z,100046.84
2023-04-08T01:55:29.307Z,100046.66
2023-04-08T01:57:59.796Z,100046.49
2023-04-08T02:00:29.487Z,100045.79
2023-04-08T02:02:57.817Z,100046.16
2023-04-08T02:05:24.625Z,100049.58
2023-04-08T02:07:52.059Z,100053.89
2023-04-08T02:10:18.641Z,100055.13
2023-04-08T02:12:46.823Z,100059.78
2023-04-08T02:15:14.275Z,100061.02
2023-04-08T02:17:52.824Z,100064.57
2023-04-08T02:20:26.982Z,100065.08
2023-04-08T02:23:05.954Z,100066.84
2023-04-08T02:25:40.054Z,100068.61
2023-04-08T02:28:09.681Z,100068.79
2023-04-08T02:30:37.869Z,100065.54
2023-04-08T02:33:05.402Z,100065.88
2023-04-08T02:35:32.888Z,100063.00
2023-04-08T02:37:59.529Z,100064.77
2023-04-08T02:40:26.255Z,100062.60
2023-04-08T02:42:53.247Z,100061.30
2023-04-08T02:45:20.269Z,100061.66
2023-04-08T02:47:47.180Z,100059.31
2023-04-08T02:50:13.656Z,100060.34
2023-04-08T02:52:40.502Z,100059.02
2023-04-08T02:55:09.955Z,100060.94
2023-04-08T02:57:37.930Z,100053.42
2023-04-08T03:00:05.356Z,100060.23
2023-04-08T03:02:31.937Z,100063.43
2023-04-08T03:04:58.841Z,100064.70
2023-04-08T03:07:25.703Z,100065.97
2023-04-08T03:09:52.441Z,100064.39
2023-04-08T03:12:18.919Z,100063.89
2023-04-08T03:14:45.400Z,100067.83
2023-04-08T03:17:11.864Z,100058.86
2023-04-08T03:19:38.318Z,100065.27
2023-04-08T03:22:04.756Z,100056.85
2023-04-08T03:24:31.249Z,100061.98
2023-04-08T03:26:57.943Z,100065.83
2023-04-08T03:29:24.435Z,100071.33
2023-04-08T03:31:51.408Z,100068.66
2023-04-08T03:34:18.003Z,100067.02
2023-04-08T03:36:44.553Z,100067.39
2023-04-08T03:39:11.146Z,100068.83
2023-04-08T03:41:37.714Z,100070.21
2023-04-08T03:44:04.821Z,100067.35
2023-04-08T03:46:31.382Z,100065.92
2023-04-08T03:48:57.887Z,100068.05
2023-04-08T03:51:24.457Z,100067.64
2023-04-08T03:53:50.927Z,100073.33
2023-04-08T03:56:17.458Z,100079.88
2023-04-08T03:58:43.984Z,100077.30
2023-04-08T04:01:10.676Z,100077.77
2023-04-08T04:03:37.346Z,100078.05
2023-04-08T04:06:04.054Z,100079.96
2023-04-08T04:08:30.584Z,100075.98
2023-04-08T04:10:59.266Z,100083.46
2023-04-08T04:13:25.812Z,100083.25
2023-04-08T04:15:52.484Z,100086.83
2023-04-08T04:18:19.084Z,100087.70
2023-04-08T04:20:45.670Z,100087.16
2023-04-08T04:23:12.261Z,100088.35
2023-04-08T04:25:41.801Z,100087.91
2023-04-08T04:28:10.048Z,100090.70
2023-04-08T04:30:40.601Z,100093.48
2023-04-08T04:33:07.544Z,100096.80
2023-04-08T04:35:34.046Z,100094.77
2023-04-08T04:38:00.714Z,100093.56
2023-04-08T04:40:27.446Z,100097.38
2023-04-08T04:42:53.946Z,100100.60
2023-04-08T04:45:20.407Z,100101.32
2023-04-08T04:47:47.015Z,100101.86
2023-04-08T04:50:13.620Z,100100.33
2023-04-08T04:52:40.419Z,100104.28
2023-04-08T04:55:07.302Z,100104.52
2023-04-08T04:57:33.894Z,100105.81
2023-04-08T05:00:01.768Z,100102.12
2023-04-08T05:02:29.407Z,100104.66
2023-04-08T05:04:56.122Z,100106.50
2023-04-08T05:07:22.809Z,100110.32
2023-04-08T05:09:49.315Z,100108.25
2023-04-08T05:12:16.285Z,100111.71
2023-04-08T05:14:42.762Z,100115.02
2023-04-08T05:17:09.270Z,100118.35
2023-04-08T05:19:35.796Z,100124.00
2023-04-08T05:22:02.297Z,100121.05
2023-04-08T05:24:28.783Z,100125.43
2023-04-08T05:26:55.273Z,100126.06
2023-04-08T05:29:22.044Z,100127.05
2023-04-08T05:31:48.636Z,100132.13
2023-04-08T05:34:16.041Z,100133.10
2023-04-08T05:36:42.776Z,100134.59
2023-04-08T05:39:09.284Z,100135.16
2023-04-08T05:41:36.127Z,100134.30
2023-04-08T05:44:02.679Z,100134.89
2023-04-08T05:46:29.268Z,100134.39
2023-04-08T05:48:55.965Z,100138.55
2023-04-08T05:51:22.439Z,100141.26
2023-04-08T05:53:48.945Z,100141.12
2023-04-08T05:56:15.472Z,100138.70
2023-04-08T05:58:41.954Z,100136.42
2023-04-08T06:01:08.482Z,100141.48
2023-04-08T06:03:35.117Z,100146.55
2023-04-08T06:06:01.809Z,100150.55
2023-04-08T06:08:28.382Z,100154.57
2023-04-08T06:10:54.872Z,100153.70
2023-04-08T06:13:22.041Z,100158.77
2023-04-08T06:15:51.234Z,100161.66
2023-04-08T06:18:18.046Z,100166.71
2023-04-08T06:20:44.594Z,100168.71
2023-04-08T06:23:11.169Z,100163.00
2023-04-08T06:25:37.623Z,100166.79
2023-04-08T06:28:04.216Z,100170.22
2023-04-08T06:30:30.691Z,100171.48
2023-04-08T06:32:57.184Z,100171.32
2023-04-08T06:35:23.696Z,100170.27
2023-04-08T06:37:50.296Z,100167.98
2023-04-08T06:40:16.746Z,100168.70
2023-04-08T06:42:44.560Z,100164.16
2023-04-08T06:45:11.392Z,100168.06
2023-04-08T06:47:37.899Z,100173.23
2023-04-08T06:50:05.291Z,100171.90
2023-04-08T06:52:31.865Z,100168.77
2023-04-08T06:54:58.363Z,100169.05
2023-04-08T06:57:24.965Z,100172.60
2023-04-08T06:59:53.075Z,100178.92
2023-04-08T07:02:19.743Z,100184.22
2023-04-08T07:04:47.007Z,100181.27
2023-04-08T07:07:13.610Z,100181.51
2023-04-08T07:09:41.542Z,100180.65
2023-04-08T07:12:07.986Z,100178.09
2023-04-08T07:14:34.486Z,100184.09
2023-04-08T07:17:00.963Z,100184.25
2023-04-08T07:19:27.713Z,100184.97
2023-04-08T07:21:54.265Z,100183.92
2023-04-08T07:24:21.097Z,100189.33
2023-04-08T07:26:47.913Z,100183.77
2023-04-08T07:29:14.579Z,100187.38
2023-04-08T07:31:41.130Z,100190.27
2023-04-08T07:34:07.576Z,100197.27
2023-04-08T07:36:34.124Z,100200.31
2023-04-08T07:39:00.857Z,100203.86
2023-04-08T07:41:27.400Z,100198.94
2023-04-08T07:43:53.971Z,100199.13
2023-04-08T07:46:21.286Z,100199.16
2023-04-08T07:48:47.856Z,100199.58
2023-04-08T07:51:14.932Z,100200.91
2023-04-08T07:53:41.576Z,100196.88
2023-04-08T07:56:13.032Z,100199.48
2023-04-08T07:58:40.549Z,100196.02
2023-04-08T08:01:21.242Z,100197.41
2023-04-08T08:03:52.184Z,100201.39
2023-04-08T08:06:19.373Z,100199.44
2023-04-08T08:08:45.894Z,100203.20
2023-04-08T08:11:12.627Z,100207.27
2023-04-08T08:13:39.132Z,100215.66
2023-04-08T08:16:09.248Z,100216.02
2023-04-08T08:18:36.955Z,100216.56
2023-04-08T08:21:03.985Z,100213.75
2023-04-08T08:23:30.487Z,100209.33
2023-04-08T08:26:01.900Z,100209.36
2023-04-08T08:28:28.844Z,100217.15
2023-04-08T08:30:55.360Z,100213.41
2023-04-08T08:33:21.982Z,100213.67
2023-04-08T08:35:48.425Z,100214.52
2023-04-08T08:38:15.057Z,100214.73
2023-04-08T08:40:41.563Z,100215.39
2023-04-08T08:43:09.531Z,100214.20
2023-04-08T08:45:42.319Z,100217.80
2023-04-08T08:48:09.422Z,100218.23
2023-04-08T08:50:36.236Z,100219.12
2023-04-08T08:53:03.502Z,100219.45
2023-04-08T08:55:50.882Z,100222.45
2023-04-08T08:58:19.072Z,100226.07
2023-04-08T09:00:45.565Z,100225.90
2023-04-08T09:03:16.625Z,100228.58
2023-04-08T09:06:00.764Z,100227.82
2023-04-08T09:08:30.630Z,100239.67
2023-04-08T09:11:12.432Z,100233.27
2023-04-08T09:13:39.272Z,100234.04
2023-04-08T09:16:10.893Z,100234.08
2023-04-08T09:18:38.879Z,100232.95
2023-04-08T09:21:06.827Z,100229.20
2023-04-08T09:23:46.273Z,100235.13
2023-04-08T09:26:16.820Z,100231.60
2023-04-08T09:28:45.191Z,100230.61
2023-04-08T09:31:41.517Z,100236.79
2023-04-08T09:34:13.508Z,100237.69
2023-04-08T09:36:40.048Z,100229.40
2023-04-08T09:39:07.805Z,100229.95
2023-04-08T09:41:36.164Z,100227.98
2023-04-08T09:44:08.094Z,100232.84
2023-04-08T09:46:49.747Z,100234.92
2023-04-08T09:49:27.316Z,100231.70
2023-04-08T09:52:07.070Z,100234.30
2023-04-08T09:54:59.771Z,100232.86
2023-04-08T09:57:58.713Z,100231.75
2023-04-08T10:00:32.464Z,100232.99
2023-04-08T10:03:21.084Z,100237.73
2023-04-08T10:05:49.303Z,100237.66
2023-04-08T10:08:16.448Z,100241.30
2023-04-08T10:10:43.381Z,100243.11
2023-04-08T10:13:10.398Z,100241.95
2023-04-08T10:15:38.452Z,100238.93
2023-04-08T10:18:05.843Z,100236.87
2023-04-08T10:20:38.618Z,100234.56
2023-04-08T10:23:15.704Z,100235.70
2023-04-08T10:25:42.670Z,100228.66
2023-04-08T10:28:12.143Z,100228.89
2023-04-08T10:30:45.709Z,100232.99
2023-04-08T10:33:40.858Z,100230.20
2023-04-08T10:36:08.596Z,100233.90
2023-04-08T10:38:35.769Z,100235.77
2023-04-08T10:41:02.708Z,100236.91
2023-04-08T10:43:34.228Z,100237.35
2023-04-08T10:46:01.581Z,100238.64
2023-04-08T10:48:31.257Z,100240.20
2023-04-08T10:51:02.767Z,100246.33
2023-04-08T10:53:31.213Z,100246.61
2023-04-08T10:56:08.126Z,100247.09
2023-04-08T10:58:36.537Z,100246.02
2023-04-08T11:01:05.637Z,100248.52
2023-04-08T11:03:33.991Z,100244.23
2023-04-08T11:06:01.952Z,100248.27
2023-04-08T11:08:32.871Z,100245.91
2023-04-08T11:11:03.086Z,100243.41
2023-04-08T11:13:30.896Z,100242.06
2023-04-08T11:15:59.956Z,100241.39
2023-04-08T11:18:27.419Z,100239.05
2023-04-08T11:20:54.521Z,100238.31
2023-04-08T11:23:22.916Z,100240.48
2023-04-08T11:25:50.814Z,100240.25
2023-04-08T11:28:18.339Z,100238.55
2023-04-08T11:30:45.239Z,100239.44
2023-04-08T11:33:13.336Z,100234.15
2023-04-08T11:35:41.764Z,100235.04
2023-04-08T11:38:09.580Z,100240.13
2023-04-08T11:40:36.547Z,100238.76
2023-04-08T11:43:11.071Z,100241.27
2023-04-08T11:45:41.700Z,100239.22
2023-04-08T11:48:12.816Z,100240.52
2023-04-08T11:50:40.373Z,100243.52
2023-04-08T11:53:25.431Z,100242.59
2023-04-08T11:55:52.544Z,100243.10
2023-04-08T11:58:19.332Z,100237.23
2023-04-08T12:00:46.025Z,100238.93
2023-04-08T12:03:13.559Z,100236.69
2023-04-08T12:05:40.872Z,100237.83
2023-04-08T12:08:07.355Z,100234.27
2023-04-08T12:10:33.886Z,100237.31
2023-04-08T12:13:00.388Z,100238.89
2023-04-08T12:15:26.919Z,100241.21
2023-04-08T12:17:53.585Z,100241.62
2023-04-08T12:20:20.279Z,100237.42
2023-04-08T12:22:47.122Z,100236.89
2023-04-08T12:25:13.544Z,100236.15
2023-04-08T12:27:39.998Z,100235.09
2023-04-08T12:30:07.333Z,100238.62
2023-04-08T12:32:34.839Z,100235.05
2023-04-08T12:35:01.446Z,100235.88
2023-04-08T12:37:28.685Z,100236.55
2023-04-08T12:39:55.437Z,100236.29
2023-04-08T12:42:22.049Z,100239.67
2023-04-08T12:44:48.532Z,100237.95
2023-04-08T12:47:15.007Z,100234.08
2023-04-08T12:52:10.864Z,100230.62
2023-04-08T12:54:37.444Z,100222.19
2023-04-08T12:57:04.779Z,100218.75
2023-04-08T12:59:32.237Z,100219.85
2023-04-08T13:01:58.970Z,100214.11
2023-04-08T13:04:25.487Z,100213.09
2023-04-08T13:06:52.296Z,100209.77
2023-04-08T13:09:18.785Z,100208.56
2023-04-08T13:11:45.233Z,100205.29
2023-04-08T13:14:12.581Z,100201.84
2023-04-08T13:16:39.141Z,100197.39
2023-04-08T13:19:05.597Z,100193.91
2023-04-08T13:21:32.375Z,100194.34
2023-04-08T13:23:58.927Z,100196.84
2023-04-08T13:26:25.457Z,100198.08
2023-04-08T13:28:57.291Z,100202.04
2023-04-08T13:31:24.682Z,100207.89
2023-04-08T13:33:51.219Z,100202.52
2023-04-08T13:36:17.755Z,100205.65
2023-04-08T13:38:45.771Z,100205.52
2023-04-08T13:41:12.424Z,100202.73
2023-04-08T13:43:38.877Z,100202.87
2023-04-08T13:46:05.536Z,100202.15
2023-04-08T13:48:32.100Z,100199.40
2023-04-08T13:50:58.563Z,100197.83
2023-04-08T13:53:25.125Z,100198.65
2023-04-08T13:55:55.208Z,100199.23
2023-04-08T13:58:24.181Z,100209.73
2023-04-08T14:00:54.370Z,100209.56
2023-04-08T14:03:21.068Z,100207.25
2023-04-08T14:05:47.668Z,100208.27
2023-04-08T14:08:14.127Z,100210.21
2023-04-08T14:10:42.267Z,100212.02
2023-04-08T14:13:09.155Z,100209.01
2023-04-08T14:15:36.170Z,100214.20
2023-04-08T14:18:02.807Z,100216.40
2023-04-08T14:20:29.953Z,100225.76
2023-04-08T14:22:56.765Z,100220.58
2023-04-08T14:25:23.774Z,100226.34
2023-04-08T14:27:58.035Z,100223.45
2023-04-08T14:30:27.069Z,100221.68
2023-04-08T14:32:53.964Z,100229.82
2023-04-08T14:35:20.624Z,100230.95
2023-04-08T14:37:47.122Z,100230.38
2023-04-08T14:40:13.684Z,100234.15
2023-04-08T14:42:40.245Z,100237.25
2023-04-08T14:45:07.431Z,100235.30
2023-04-08T14:47:33.967Z,100239.56
2023-04-08T14:50:00.448Z,100242.54
2023-04-08T14:52:27.386Z,100241.54
2023-04-08T14:54:53.931Z,100241.34
2023-04-08T14:57:20.441Z,100242.63
2023-04-08T14:59:46.932Z,100247.61
2023-04-08T15:02:13.643Z,100247.95
2023-04-08T15:04:40.444Z,100252.10
2023-04-08T15:07:07.584Z,100256.84
2023-04-08T15:09:34.093Z,100259.73
2023-04-08T15:12:01.384Z,100264.93
2023-04-08T15:14:27.896Z,100266.23
2023-04-08T15:16:54.403Z,100263.33
2023-04-08T15:19:21.334Z,100267.51
2023-04-08T15:21:47.842Z,100272.98
2023-04-08T15:24:14.376Z,100275.63
2023-04-08T15:26:41.119Z,100279.21
2023-04-08T15:29:07.853Z,100277.23
2023-04-08T15:31:35.195Z,100279.30
2023-04-08T15:34:02.871Z,100281.42
2023-04-08T15:36:30.233Z,100285.65
2023-04-08T15:38:56.964Z,100283.77
2023-04-08T15:41:23.471Z,100288.02
2023-04-08T15:43:50.255Z,100287.85
2023-04-08T15:46:21.387Z,100285.13
2023-04-08T15:48:48.607Z,100282.13
2023-04-08T15:51:15.678Z,100286.05
2023-04-08T15:53:42.859Z,100281.85
2023-04-08T15:56:13.922Z,100278.14
2023-04-08T15:58:40.827Z,100278.56
2023-04-08T16:01:07.345Z,100281.20
2023-04-08T16:03:34.474Z,100281.69
2023-04-08T16:06:01.128Z,100283.30
2023-04-08T16:08:27.704Z,100285.36
2023-04-08T16:11:01.294Z,100286.92
2023-04-08T16:13:29.055Z,100292.02
2023-04-08T16:15:56.674Z,100292.90
2023-04-08T16:18:23.184Z,100295.42
2023-04-08T16:20:50.077Z,100303.04
2023-04-08T16:23:17.884Z,100305.27
2023-04-08T16:25:45.206Z,100307.58
2023-04-08T16:28:11.942Z,100306.96
2023-04-08T16:30:38.853Z,100307.48
2023-04-08T16:33:06.292Z,100304.48
2023-04-08T16:35:32.889Z,100305.99
2023-04-08T16:37:59.613Z,100304.55
2023-04-08T16:40:26.268Z,100302.95
2023-04-08T16:42:52.970Z,100305.19
2023-04-08T16:45:19.593Z,100310.08
2023-04-08T16:47:46.285Z,100311.75
2023-04-08T16:50:12.946Z,100318.10
2023-04-08T16:52:39.480Z,100321.77
2023-04-08T16:55:06.635Z,100319.46
2023-04-08T16:57:33.198Z,100321.48
2023-04-08T16:59:59.705Z,100324.96
2023-04-08T17:02:26.631Z,100328.09
2023-04-08T17:04:53.229Z,100328.85
2023-04-08T17:07:19.899Z,100329.83
2023-04-08T17:09:51.519Z,100326.40
2023-04-08T17:12:18.162Z,100330.60
2023-04-08T17:14:44.686Z,100333.20
2023-04-08T17:17:11.374Z,100341.55
2023-04-08T17:19:38.336Z,100342.46
2023-04-08T17:22:04.879Z,100342.30
2023-04-08T17:24:31.714Z,100347.20
2023-04-08T17:26:58.620Z,100348.67
2023-04-08T17:29:25.713Z,100349.98
2023-04-08T17:31:52.534Z,100349.11
2023-04-08T17:34:19.158Z,100348.25
2023-04-08T17:36:45.978Z,100349.02
2023-04-08T17:39:12.405Z,100351.41
2023-04-08T17:41:40.733Z,100351.80
2023-04-08T17:44:08.004Z,100354.34
2023-04-08T17:46:34.588Z,100358.70
2023-04-08T17:49:01.174Z,100356.20
2023-04-08T17:51:28.872Z,100364.66
2023-04-08T17:53:56.156Z,100366.13
2023-04-08T17:56:23.611Z,100369.58
2023-04-08T17:58:50.377Z,100371.02
2023-04-08T18:01:17.252Z,100370.88
2023-04-08T18:03:44.771Z,100377.36
2023-04-08T18:06:11.233Z,100376.10
2023-04-08T18:08:37.923Z,100372.52
2023-04-08T18:11:07.192Z,100376.10
2023-04-08T18:13:33.808Z,100376.65
2023-04-08T18:16:00.378Z,100375.75
2023-04-08T18:18:26.892Z,100382.23
2023-04-08T18:20:53.528Z,100385.85
2023-04-08T18:23:20.065Z,100389.27
2023-04-08T18:25:47.420Z,100390.73
2023-04-08T18:28:14.080Z,100393.61
2023-04-08T18:30:40.730Z,100398.31
2023-04-08T18:33:08.596Z,100405.14
2023-04-08T18:35:35.232Z,100406.61
2023-04-08T18:38:01.734Z,100409.30
2023-04-08T18:40:28.264Z,100409.48
2023-04-08T18:42:54.793Z,100411.84
2023-04-08T18:45:21.292Z,100414.72
2023-04-08T18:47:47.770Z,100413.64
2023-04-08T18:50:14.586Z,100419.02
2023-04-08T18:52:41.172Z,100426.06
2023-04-08T18:55:08.108Z,100428.59
2023-04-08T18:57:34.609Z,100426.78
2023-04-08T19:00:01.410Z,100427.14
2023-04-08T19:02:28.008Z,100434.33
2023-04-08T19:04:55.868Z,100430.36
2023-04-08T19:07:23.376Z,100428.02
2023-04-08T19:09:49.799Z,100432.16
2023-04-08T19:12:16.501Z,100438.81
2023-04-08T19:14:43.054Z,100436.83
2023-04-08T19:17:09.857Z,100442.23
2023-04-08T19:19:36.484Z,100441.14
2023-04-08T19:22:05.826Z,100442.95
2023-04-08T19:24:33.231Z,100440.43
2023-04-08T19:26:59.902Z,100441.86
2023-04-08T19:29:29.682Z,100448.55
2023-04-08T19:31:57.533Z,100449.26
2023-04-08T19:34:24.032Z,100454.66
2023-04-08T19:36:50.614Z,100457.38
2023-04-08T19:39:17.141Z,100462.41
2023-04-08T19:41:43.649Z,100461.15
2023-04-08T19:44:10.379Z,100459.52
2023-04-08T19:46:37.439Z,100460.27
2023-04-08T19:49:04.459Z,100463.86
2023-04-08T19:51:32.833Z,100464.94
2023-04-08T19:53:59.452Z,100466.02
2023-04-08T19:56:26.466Z,100464.05
2023-04-08T19:58:53.564Z,100463.52
2023-04-08T20:01:20.693Z,100461.34
2023-04-08T20:03:50.395Z,100460.98
2023-04-08T20:06:20.213Z,100462.95
2023-04-08T20:08:46.835Z,100466.20
2023-04-08T20:11:13.377Z,100466.02
2023-04-08T20:13:40.216Z,100468.71
2023-04-08T20:16:07.560Z,100467.98
2023-04-08T20:18:34.399Z,100470.15
2023-04-08T20:21:01.108Z,100471.58
2023-04-08T20:23:28.535Z,100471.58
2023-04-08T20:25:55.174Z,100471.58
2023-04-08T20:28:21.726Z,100474.11
2023-04-08T20:30:50.121Z,100466.91
2023-04-08T20:33:16.889Z,100473.55
2023-04-08T20:35:43.869Z,100473.56
2023-04-08T20:38:10.381Z,100473.75
2023-04-08T20:40:37.083Z,100475.18
2023-04-08T20:43:03.753Z,100477.15
2023-04-08T20:45:30.805Z,100476.09
2023-04-08T20:47:57.404Z,100475.71
2023-04-08T20:50:24.720Z,100480.55
2023-04-08T20:52:51.736Z,100483.60
2023-04-08T20:55:18.259Z,100481.43
2023-04-08T20:57:44.850Z,100483.95
2023-04-08T21:00:13.708Z,100485.55
2023-04-08T21:02:40.462Z,100480.48
2023-04-08T21:05:07.738Z,100479.77
2023-04-08T21:07:35.014Z,100476.16
2023-04-08T21:10:01.575Z,100474.35
2023-04-08T21:12:28.083Z,100475.59
2023-04-08T21:14:54.589Z,100477.38
2023-04-08T21:17:21.111Z,100474.86
2023-04-08T21:19:47.586Z,100476.49
2023-04-08T21:22:14.048Z,100472.55
2023-04-08T21:24:40.721Z,100472.75
2023-04-08T21:27:07.266Z,100473.84
2023-04-08T21:29:33.736Z,100477.98
2023-04-08T21:32:00.483Z,100477.96
2023-04-08T21:34:27.227Z,100479.05
2023-04-08T21:36:53.756Z,100479.57
2023-04-08T21:39:20.538Z,100481.55
2023-04-08T21:41:48.162Z,100482.44
2023-04-08T21:44:15.709Z,100483.13
2023-04-08T21:46:42.354Z,100477.74
2023-04-08T21:49:11.213Z,100480.95
2023-04-08T21:51:39.191Z,100479.33
2023-04-08T21:54:06.172Z,100481.11
2023-04-08T21:56:32.864Z,100483.23
2023-04-08T21:58:59.609Z,100484.30
2023-04-08T22:01:26.927Z,100484.99
2023-04-08T22:03:55.473Z,100486.80
2023-04-08T22:06:31.459Z,100489.11
2023-04-08T22:08:59.314Z,100487.48
2023-04-08T22:11:25.970Z,100488.91
2023-04-08T22:13:52.523Z,100488.70
2023-04-08T22:16:19.129Z,100490.66
2023-04-08T22:18:45.674Z,100490.70
2023-04-08T22:21:12.453Z,100488.73
2023-04-08T22:23:39.094Z,100485.52
2023-04-08T22:26:05.605Z,100483.37
2023-04-08T22:28:34.230Z,100486.23
2023-04-08T22:31:01.286Z,100490.00
2023-04-08T22:33:28.048Z,100485.87
2023-04-08T22:35:57.644Z,100485.31
2023-04-08T22:38:24.550Z,100482.23
2023-04-08T22:40:51.184Z,100487.22
2023-04-08T22:43:17.617Z,100484.84
2023-04-08T22:45:44.156Z,100491.63
2023-04-08T22:48:10.680Z,100489.42
2023-04-08T22:50:37.194Z,100485.27
2023-04-08T22:53:04.011Z,100487.39
2023-04-08T22:55:30.767Z,100486.82
2023-04-08T22:57:57.241Z,100485.71
2023-04-08T23:00:23.954Z,100486.23
2023-04-08T23:02:50.761Z,100486.55
2023-04-08T23:05:17.640Z,100488.85
2023-04-08T23:07:44.231Z,100490.47
2023-04-08T23:10:11.037Z,100486.70
2023-04-08T23:12:37.536Z,100490.60
2023-04-08T23:15:04.570Z,100489.39
2023-04-08T23:17:31.128Z,100488.34
2023-04-08T23:19:57.829Z,100487.81
2023-04-08T23:22:24.380Z,100494.86
2023-04-08T23:24:50.869Z,100492.20
2023-04-08T23:27:17.403Z,100491.64
2023-04-08T23:29:43.860Z,100493.28
2023-04-08T23:32:10.418Z,100492.91
2023-04-08T23:34:37.636Z,100490.92
2023-04-08T23:37:04.464Z,100494.14
2023-04-08T23:39:31.903Z,100491.45
2023-04-08T23:41:58.492Z,100491.94
2023-04-08T23:44:25.040Z,100493.73
2023-04-08T23:46:51.581Z,100494.23
2023-04-08T23:49:18.125Z,100493.67
2023-04-08T23:51:44.701Z,100494.02
2023-04-08T23:54:11.305Z,100494.18
2023-04-08T23:56:41.148Z,100490.38
2023-04-08T23:59:07.707Z,100491.80
